McAllen, TX (78501)

11:39 PM CST on February 11, 2016 (GMT -0600)
central McAllen | | Change Station
CLOSE
Current Station
Personal Weather Station
Location: McAllen, TX
Elevation: 138 ft
Nearby Weather Stations

Elev 138 ft 26.23 °N, 98.23 °W | Updated 23 seconds ago

Clear
Clear
63.0 °F
Feels Like 63.0 °F
N
6.8
Wind Variable Wind from East

Today
High -- | Low -- °F
--% Chance of Precip.
Yesterday
High -- | Low -- °F
Precip. -- in
Pressure 30.18 in
Visibility 10.0 miles
Clouds Clear
Dew Point 59 °F
Humidity 86%
Rainfall 0.00 in
Snow Depth Not available.
7:11 AM 6:22 PM
Waxing Crescent, 17% visible
METAR KMFE 120453Z AUTO 15010KT 10SM CLR 18/14 A3018 RMK AO2 SLP219 T01830139
Pressure 30.18 in
Visibility 10.0 miles
Clouds Clear
Dew Point 59 °F
Humidity 86%
Rainfall 0.00 in
Snow Depth Not available.
7:11 AM 6:22 PM
Waxing Crescent, 17% visible
METAR KMFE 120453Z AUTO 15010KT 10SM CLR 18/14 A3018 RMK AO2 SLP219 T01830139

10-Day Weather Forecast

Almanac

Astronomy

Feb. 11, 2016 Rise Set
Actual Time
Civil Twilight
Nautical Twilight
Astronomical Twilight
Moon
Length of Visible Light
Length of Day
Tomorrow will be .
, % of the Moon is Illuminated

Today's Extremes

State Highs State Lows

Community

WunderPhotos

Upload Photos

1,892,268 photos uploaded!

WunderBlog® & News

Nearby

Air Quality

  Air Quality AQ Index Pollutant
Not available.

Snow Depth

Station Depth Elevation

Earthquake Activity

City Distance Mag. Time & Date
Minimum magnitude displayed is 2.5.

Coastal Water Temperatures

Place Temperature

Stations

Nearby Weather Stations

Station Location Temp. Windchill Dew Point Humidity Wind Precip. Elev Updated Type
                   

Watches & Warnings

There are currently no watches in effect.